sensor_id;sensor_type;location;lat;lon;timestamp;P1;durP1;ratioP1;P2;durP2;ratioP2
72406;SDS011;60396;47.550;18.828;2022-08-20T00:02:12;12.25;;;3.45;;
72406;SDS011;60396;47.550;18.828;2022-08-20T00:04:40;11.30;;;3.20;;
72406;SDS011;60396;47.550;18.828;2022-08-20T00:07:08;11.23;;;3.60;;
72406;SDS011;60396;47.550;18.828;2022-08-20T00:09:35;9.40;;;2.95;;
72406;SDS011;60396;47.550;18.828;2022-08-20T00:12:04;11.50;;;3.83;;
72406;SDS011;60396;47.550;18.828;2022-08-20T00:14:32;11.82;;;3.53;;
72406;SDS011;60396;47.550;18.828;2022-08-20T00:17:01;12.25;;;2.87;;
72406;SDS011;60396;47.550;18.828;2022-08-20T00:19:30;12.25;;;3.45;;
72406;SDS011;60396;47.550;18.828;2022-08-20T00:21:57;14.82;;;2.70;;
72406;SDS011;60396;47.550;18.828;2022-08-20T00:24:25;13.00;;;2.70;;
72406;SDS011;60396;47.550;18.828;2022-08-20T00:26:53;13.75;;;2.47;;
72406;SDS011;60396;47.550;18.828;2022-08-20T00:29:20;13.93;;;2.85;;
72406;SDS011;60396;47.550;18.828;2022-08-20T00:31:49;15.20;;;2.75;;
72406;SDS011;60396;47.550;18.828;2022-08-20T00:34:17;13.07;;;2.65;;
72406;SDS011;60396;47.550;18.828;2022-08-20T00:36:44;11.50;;;2.57;;
72406;SDS011;60396;47.550;18.828;2022-08-20T00:39:13;10.73;;;2.58;;
72406;SDS011;60396;47.550;18.828;2022-08-20T00:41:40;15.02;;;2.92;;
72406;SDS011;60396;47.550;18.828;2022-08-20T00:44:12;13.23;;;2.58;;
72406;SDS011;60396;47.550;18.828;2022-08-20T00:46:44;15.20;;;2.25;;
72406;SDS011;60396;47.550;18.828;2022-08-20T00:49:14;12.70;;;2.67;;
72406;SDS011;60396;47.550;18.828;2022-08-20T00:51:49;17.87;;;2.37;;
72406;SDS011;60396;47.550;18.828;2022-08-20T00:54:29;15.00;;;2.10;;
72406;SDS011;60396;47.550;18.828;2022-08-20T00:57:37;12.57;;;2.30;;
72406;SDS011;60396;47.550;18.828;2022-08-20T01:00:35;15.98;;;2.35;;
72406;SDS011;60396;47.550;18.828;2022-08-20T01:03:06;19.23;;;3.00;;
72406;SDS011;60396;47.550;18.828;2022-08-20T01:05:39;10.00;;;2.42;;
72406;SDS011;60396;47.550;18.828;2022-08-20T01:08:11;19.52;;;2.53;;
72406;SDS011;60396;47.550;18.828;2022-08-20T01:10:40;11.48;;;2.60;;
72406;SDS011;60396;47.550;18.828;2022-08-20T01:13:15;14.05;;;2.85;;
72406;SDS011;60396;47.550;18.828;2022-08-20T01:15:46;9.50;;;3.07;;
72406;SDS011;60396;47.550;18.828;2022-08-20T01:18:16;11.25;;;3.37;;
72406;SDS011;60396;47.550;18.828;2022-08-20T01:20:47;15.90;;;3.70;;
72406;SDS011;60396;47.550;18.828;2022-08-20T01:23:19;13.65;;;4.30;;
72406;SDS011;60396;47.550;18.828;2022-08-20T01:31:17;15.45;;;5.60;;
72406;SDS011;60396;47.550;18.828;2022-08-20T01:33:48;14.60;;;5.20;;
72406;SDS011;60396;47.550;18.828;2022-08-20T01:36:17;18.48;;;5.43;;
72406;SDS011;60396;47.550;18.828;2022-08-20T01:38:48;13.55;;;5.10;;
72406;SDS011;60396;47.550;18.828;2022-08-20T01:43:55;14.85;;;4.80;;
72406;SDS011;60396;47.550;18.828;2022-08-20T01:46:25;15.35;;;5.35;;
72406;SDS011;60396;47.550;18.828;2022-08-20T01:48:55;14.98;;;5.32;;
72406;SDS011;60396;47.550;18.828;2022-08-20T01:51:26;13.18;;;5.45;;
72406;SDS011;60396;47.550;18.828;2022-08-20T01:53:56;12.40;;;5.23;;
72406;SDS011;60396;47.550;18.828;2022-08-20T01:56:28;14.70;;;5.75;;
72406;SDS011;60396;47.550;18.828;2022-08-20T01:58:58;16.75;;;5.53;;
72406;SDS011;60396;47.550;18.828;2022-08-20T02:01:34;13.52;;;5.57;;
72406;SDS011;60396;47.550;18.828;2022-08-20T02:04:14;15.85;;;6.05;;
72406;SDS011;60396;47.550;18.828;2022-08-20T02:06:52;15.33;;;6.50;;
72406;SDS011;60396;47.550;18.828;2022-08-20T02:09:28;14.02;;;6.50;;
72406;SDS011;60396;47.550;18.828;2022-08-20T02:11:58;15.43;;;5.82;;
72406;SDS011;60396;47.550;18.828;2022-08-20T02:14:27;14.50;;;6.12;;
72406;SDS011;60396;47.550;18.828;2022-08-20T02:16:55;21.70;;;6.40;;
72406;SDS011;60396;47.550;18.828;2022-08-20T02:19:32;14.17;;;6.00;;
72406;SDS011;60396;47.550;18.828;2022-08-20T02:24:47;13.00;;;5.37;;
72406;SDS011;60396;47.550;18.828;2022-08-20T02:27:15;14.20;;;5.18;;
72406;SDS011;60396;47.550;18.828;2022-08-20T02:29:44;12.63;;;4.70;;
72406;SDS011;60396;47.550;18.828;2022-08-20T02:32:12;12.37;;;4.60;;
72406;SDS011;60396;47.550;18.828;2022-08-20T02:35:01;12.85;;;5.30;;
72406;SDS011;60396;47.550;18.828;2022-08-20T02:37:30;17.67;;;4.95;;
72406;SDS011;60396;47.550;18.828;2022-08-20T02:39:58;24.20;;;5.78;;
72406;SDS011;60396;47.550;18.828;2022-08-20T02:42:26;12.50;;;5.18;;
72406;SDS011;60396;47.550;18.828;2022-08-20T02:44:53;13.73;;;4.70;;
72406;SDS011;60396;47.550;18.828;2022-08-20T02:47:27;13.23;;;4.95;;
72406;SDS011;60396;47.550;18.828;2022-08-20T02:49:58;16.08;;;5.53;;
72406;SDS011;60396;47.550;18.828;2022-08-20T02:52:26;12.75;;;5.15;;
72406;SDS011;60396;47.550;18.828;2022-08-20T02:54:53;16.77;;;4.80;;
72406;SDS011;60396;47.550;18.828;2022-08-20T02:57:21;14.43;;;5.87;;
72406;SDS011;60396;47.550;18.828;2022-08-20T02:59:49;11.90;;;5.43;;
72406;SDS011;60396;47.550;18.828;2022-08-20T03:02:18;12.40;;;5.12;;
72406;SDS011;60396;47.550;18.828;2022-08-20T03:04:46;13.23;;;4.95;;
72406;SDS011;60396;47.550;18.828;2022-08-20T03:07:13;11.80;;;4.65;;
72406;SDS011;60396;47.550;18.828;2022-08-20T03:09:41;17.13;;;6.37;;
72406;SDS011;60396;47.550;18.828;2022-08-20T03:12:09;15.40;;;6.47;;
72406;SDS011;60396;47.550;18.828;2022-08-20T03:14:37;16.12;;;6.60;;
72406;SDS011;60396;47.550;18.828;2022-08-20T03:17:04;22.25;;;8.77;;
72406;SDS011;60396;47.550;18.828;2022-08-20T03:19:32;17.50;;;7.80;;
72406;SDS011;60396;47.550;18.828;2022-08-20T03:21:59;17.97;;;8.00;;
72406;SDS011;60396;47.550;18.828;2022-08-20T03:24:27;16.15;;;7.90;;
72406;SDS011;60396;47.550;18.828;2022-08-20T03:26:55;20.05;;;8.02;;
72406;SDS011;60396;47.550;18.828;2022-08-20T03:29:22;18.42;;;8.48;;
72406;SDS011;60396;47.550;18.828;2022-08-20T03:31:50;20.30;;;9.00;;
72406;SDS011;60396;47.550;18.828;2022-08-20T03:34:17;22.13;;;8.57;;
72406;SDS011;60396;47.550;18.828;2022-08-20T03:36:45;17.55;;;8.48;;
72406;SDS011;60396;47.550;18.828;2022-08-20T03:39:12;20.55;;;8.25;;
72406;SDS011;60396;47.550;18.828;2022-08-20T03:41:41;15.85;;;6.90;;
72406;SDS011;60396;47.550;18.828;2022-08-20T03:44:09;19.62;;;9.65;;
72406;SDS011;60396;47.550;18.828;2022-08-20T03:46:36;20.20;;;10.20;;
72406;SDS011;60396;47.550;18.828;2022-08-20T03:49:05;19.27;;;10.07;;
72406;SDS011;60396;47.550;18.828;2022-08-20T03:51:33;17.67;;;7.30;;
72406;SDS011;60396;47.550;18.828;2022-08-20T03:54:21;15.57;;;8.18;;
72406;SDS011;60396;47.550;18.828;2022-08-20T03:56:48;20.02;;;10.30;;
72406;SDS011;60396;47.550;18.828;2022-08-20T03:59:16;19.67;;;9.67;;
72406;SDS011;60396;47.550;18.828;2022-08-20T04:01:43;17.20;;;8.00;;
72406;SDS011;60396;47.550;18.828;2022-08-20T04:04:13;20.73;;;8.57;;
72406;SDS011;60396;47.550;18.828;2022-08-20T04:06:41;16.92;;;8.30;;
72406;SDS011;60396;47.550;18.828;2022-08-20T04:09:09;19.33;;;8.18;;
72406;SDS011;60396;47.550;18.828;2022-08-20T04:11:39;19.47;;;7.83;;
72406;SDS011;60396;47.550;18.828;2022-08-20T04:14:07;19.05;;;6.55;;
72406;SDS011;60396;47.550;18.828;2022-08-20T04:16:37;13.62;;;6.15;;
72406;SDS011;60396;47.550;18.828;2022-08-20T04:19:06;15.48;;;5.78;;
72406;SDS011;60396;47.550;18.828;2022-08-20T04:21:34;15.95;;;6.55;;
72406;SDS011;60396;47.550;18.828;2022-08-20T04:24:03;14.57;;;6.33;;
72406;SDS011;60396;47.550;18.828;2022-08-20T04:26:32;13.27;;;5.53;;
72406;SDS011;60396;47.550;18.828;2022-08-20T04:29:01;21.60;;;5.93;;
72406;SDS011;60396;47.550;18.828;2022-08-20T04:31:29;14.23;;;5.00;;
72406;SDS011;60396;47.550;18.828;2022-08-20T04:34:00;12.32;;;5.12;;
72406;SDS011;60396;47.550;18.828;2022-08-20T04:36:29;10.47;;;4.43;;
72406;SDS011;60396;47.550;18.828;2022-08-20T04:38:57;13.00;;;4.72;;
72406;SDS011;60396;47.550;18.828;2022-08-20T04:41:25;14.05;;;4.50;;
72406;SDS011;60396;47.550;18.828;2022-08-20T04:43:53;14.25;;;4.62;;
72406;SDS011;60396;47.550;18.828;2022-08-20T04:46:22;14.02;;;4.32;;
72406;SDS011;60396;47.550;18.828;2022-08-20T04:48:52;12.93;;;4.47;;
72406;SDS011;60396;47.550;18.828;2022-08-20T04:51:20;10.13;;;3.97;;
72406;SDS011;60396;47.550;18.828;2022-08-20T04:53:51;10.75;;;4.60;;
72406;SDS011;60396;47.550;18.828;2022-08-20T04:56:21;11.75;;;4.37;;
72406;SDS011;60396;47.550;18.828;2022-08-20T04:58:51;14.98;;;4.95;;
72406;SDS011;60396;47.550;18.828;2022-08-20T05:01:20;11.87;;;4.50;;
72406;SDS011;60396;47.550;18.828;2022-08-20T05:03:50;14.82;;;4.90;;
72406;SDS011;60396;47.550;18.828;2022-08-20T05:06:25;11.07;;;4.47;;
72406;SDS011;60396;47.550;18.828;2022-08-20T05:08:57;11.55;;;4.00;;
72406;SDS011;60396;47.550;18.828;2022-08-20T05:11:27;13.70;;;4.93;;
72406;SDS011;60396;47.550;18.828;2022-08-20T05:14:03;14.87;;;4.97;;
72406;SDS011;60396;47.550;18.828;2022-08-20T05:16:34;16.37;;;3.83;;
72406;SDS011;60396;47.550;18.828;2022-08-20T05:19:09;12.10;;;4.10;;
72406;SDS011;60396;47.550;18.828;2022-08-20T05:21:38;11.20;;;4.00;;
72406;SDS011;60396;47.550;18.828;2022-08-20T05:24:07;15.32;;;4.80;;
72406;SDS011;60396;47.550;18.828;2022-08-20T05:26:36;11.57;;;3.77;;
72406;SDS011;60396;47.550;18.828;2022-08-20T05:29:03;13.98;;;4.18;;
72406;SDS011;60396;47.550;18.828;2022-08-20T05:31:33;11.80;;;3.28;;
72406;SDS011;60396;47.550;18.828;2022-08-20T05:34:05;14.02;;;4.47;;
72406;SDS011;60396;47.550;18.828;2022-08-20T05:36:37;13.15;;;4.55;;
72406;SDS011;60396;47.550;18.828;2022-08-20T05:39:08;12.73;;;4.60;;
72406;SDS011;60396;47.550;18.828;2022-08-20T05:41:36;15.40;;;5.30;;
72406;SDS011;60396;47.550;18.828;2022-08-20T05:44:06;17.87;;;5.12;;
72406;SDS011;60396;47.550;18.828;2022-08-20T05:46:40;15.00;;;5.43;;
72406;SDS011;60396;47.550;18.828;2022-08-20T05:49:10;14.65;;;5.28;;
72406;SDS011;60396;47.550;18.828;2022-08-20T05:51:40;16.17;;;6.50;;
72406;SDS011;60396;47.550;18.828;2022-08-20T05:54:07;17.33;;;6.07;;
72406;SDS011;60396;47.550;18.828;2022-08-20T05:56:36;16.27;;;7.05;;
72406;SDS011;60396;47.550;18.828;2022-08-20T05:59:05;18.95;;;7.20;;
72406;SDS011;60396;47.550;18.828;2022-08-20T06:01:34;13.90;;;4.55;;
72406;SDS011;60396;47.550;18.828;2022-08-20T06:04:03;13.87;;;5.97;;
72406;SDS011;60396;47.550;18.828;2022-08-20T06:06:53;15.25;;;6.05;;
72406;SDS011;60396;47.550;18.828;2022-08-20T06:09:24;16.60;;;6.85;;
72406;SDS011;60396;47.550;18.828;2022-08-20T06:12:01;15.18;;;4.47;;
72406;SDS011;60396;47.550;18.828;2022-08-20T06:14:31;19.65;;;6.30;;
72406;SDS011;60396;47.550;18.828;2022-08-20T06:17:06;14.60;;;5.07;;
72406;SDS011;60396;47.550;18.828;2022-08-20T06:19:36;14.63;;;4.87;;
72406;SDS011;60396;47.550;18.828;2022-08-20T06:22:05;16.73;;;6.15;;
72406;SDS011;60396;47.550;18.828;2022-08-20T06:24:49;19.17;;;5.25;;
72406;SDS011;60396;47.550;18.828;2022-08-20T06:27:17;10.75;;;3.92;;
72406;SDS011;60396;47.550;18.828;2022-08-20T06:29:45;17.83;;;4.47;;
72406;SDS011;60396;47.550;18.828;2022-08-20T06:32:12;15.73;;;4.20;;
72406;SDS011;60396;47.550;18.828;2022-08-20T06:34:40;15.77;;;4.72;;
72406;SDS011;60396;47.550;18.828;2022-08-20T06:37:19;16.30;;;5.68;;
72406;SDS011;60396;47.550;18.828;2022-08-20T06:40:09;17.70;;;7.62;;
72406;SDS011;60396;47.550;18.828;2022-08-20T06:42:45;17.63;;;8.57;;
72406;SDS011;60396;47.550;18.828;2022-08-20T06:45:16;16.10;;;7.47;;
72406;SDS011;60396;47.550;18.828;2022-08-20T06:47:46;22.30;;;9.23;;
72406;SDS011;60396;47.550;18.828;2022-08-20T06:50:16;18.02;;;8.90;;
72406;SDS011;60396;47.550;18.828;2022-08-20T06:52:46;18.70;;;7.25;;
72406;SDS011;60396;47.550;18.828;2022-08-20T06:55:19;21.80;;;7.53;;
72406;SDS011;60396;47.550;18.828;2022-08-20T06:57:55;19.25;;;7.30;;
72406;SDS011;60396;47.550;18.828;2022-08-20T07:00:26;17.87;;;7.43;;
72406;SDS011;60396;47.550;18.828;2022-08-20T07:02:55;21.75;;;6.80;;
72406;SDS011;60396;47.550;18.828;2022-08-20T07:05:26;15.65;;;6.65;;
72406;SDS011;60396;47.550;18.828;2022-08-20T07:07:58;19.83;;;6.50;;
72406;SDS011;60396;47.550;18.828;2022-08-20T07:10:27;19.60;;;6.35;;
72406;SDS011;60396;47.550;18.828;2022-08-20T07:12:56;20.45;;;6.28;;
72406;SDS011;60396;47.550;18.828;2022-08-20T07:15:25;14.95;;;5.30;;
72406;SDS011;60396;47.550;18.828;2022-08-20T07:17:54;19.92;;;6.25;;
72406;SDS011;60396;47.550;18.828;2022-08-20T07:20:27;13.60;;;5.30;;
72406;SDS011;60396;47.550;18.828;2022-08-20T07:22:58;19.27;;;5.65;;
72406;SDS011;60396;47.550;18.828;2022-08-20T07:25:26;16.65;;;5.47;;
72406;SDS011;60396;47.550;18.828;2022-08-20T07:27:59;13.95;;;4.93;;
72406;SDS011;60396;47.550;18.828;2022-08-20T07:30:28;21.85;;;6.90;;
72406;SDS011;60396;47.550;18.828;2022-08-20T07:33:24;17.63;;;6.07;;
72406;SDS011;60396;47.550;18.828;2022-08-20T07:35:58;16.70;;;6.05;;
72406;SDS011;60396;47.550;18.828;2022-08-20T07:38:27;18.45;;;5.68;;
72406;SDS011;60396;47.550;18.828;2022-08-20T07:40:57;19.92;;;7.43;;
72406;SDS011;60396;47.550;18.828;2022-08-20T07:43:27;20.42;;;6.50;;
72406;SDS011;60396;47.550;18.828;2022-08-20T07:45:56;21.07;;;7.00;;
72406;SDS011;60396;47.550;18.828;2022-08-20T07:48:28;23.00;;;6.93;;
72406;SDS011;60396;47.550;18.828;2022-08-20T07:51:00;17.15;;;5.78;;
72406;SDS011;60396;47.550;18.828;2022-08-20T07:53:30;18.60;;;6.60;;
72406;SDS011;60396;47.550;18.828;2022-08-20T07:56:03;19.62;;;6.07;;
72406;SDS011;60396;47.550;18.828;2022-08-20T07:58:33;13.67;;;5.87;;
72406;SDS011;60396;47.550;18.828;2022-08-20T08:01:03;14.90;;;6.28;;
72406;SDS011;60396;47.550;18.828;2022-08-20T08:03:33;17.70;;;6.32;;
72406;SDS011;60396;47.550;18.828;2022-08-20T08:06:16;15.40;;;6.65;;
72406;SDS011;60396;47.550;18.828;2022-08-20T08:09:04;16.27;;;6.60;;
72406;SDS011;60396;47.550;18.828;2022-08-20T08:11:34;20.47;;;6.50;;
72406;SDS011;60396;47.550;18.828;2022-08-20T08:14:06;16.73;;;6.53;;
72406;SDS011;60396;47.550;18.828;2022-08-20T08:16:34;16.42;;;7.78;;
72406;SDS011;60396;47.550;18.828;2022-08-20T08:19:03;13.00;;;6.55;;
72406;SDS011;60396;47.550;18.828;2022-08-20T08:21:33;19.10;;;7.70;;
72406;SDS011;60396;47.550;18.828;2022-08-20T08:24:01;17.63;;;7.93;;
72406;SDS011;60396;47.550;18.828;2022-08-20T08:26:29;14.65;;;7.18;;
72406;SDS011;60396;47.550;18.828;2022-08-20T08:28:57;17.85;;;7.85;;
72406;SDS011;60396;47.550;18.828;2022-08-20T08:31:24;19.25;;;7.28;;
72406;SDS011;60396;47.550;18.828;2022-08-20T08:33:52;18.12;;;7.82;;
72406;SDS011;60396;47.550;18.828;2022-08-20T08:36:20;15.83;;;5.97;;
72406;SDS011;60396;47.550;18.828;2022-08-20T08:38:49;14.87;;;7.45;;
72406;SDS011;60396;47.550;18.828;2022-08-20T08:41:20;15.82;;;6.78;;
72406;SDS011;60396;47.550;18.828;2022-08-20T08:44:44;18.37;;;6.68;;
72406;SDS011;60396;47.550;18.828;2022-08-20T08:47:34;16.58;;;5.70;;
72406;SDS011;60396;47.550;18.828;2022-08-20T08:49:52;12.50;;;5.53;;
72406;SDS011;60396;47.550;18.828;2022-08-20T08:52:25;16.05;;;5.80;;
72406;SDS011;60396;47.550;18.828;2022-08-20T08:54:59;16.60;;;5.18;;
72406;SDS011;60396;47.550;18.828;2022-08-20T08:57:28;10.77;;;4.47;;
72406;SDS011;60396;47.550;18.828;2022-08-20T09:00:15;14.38;;;4.10;;
72406;SDS011;60396;47.550;18.828;2022-08-20T09:02:55;13.33;;;4.50;;
72406;SDS011;60396;47.550;18.828;2022-08-20T09:05:32;16.35;;;4.32;;
72406;SDS011;60396;47.550;18.828;2022-08-20T09:08:11;15.68;;;3.75;;
72406;SDS011;60396;47.550;18.828;2022-08-20T09:10:43;16.90;;;4.18;;
72406;SDS011;60396;47.550;18.828;2022-08-20T09:13:12;14.87;;;4.45;;
72406;SDS011;60396;47.550;18.828;2022-08-20T09:15:39;12.73;;;3.83;;
72406;SDS011;60396;47.550;18.828;2022-08-20T09:18:07;17.05;;;4.28;;
72406;SDS011;60396;47.550;18.828;2022-08-20T09:20:35;16.60;;;3.35;;
72406;SDS011;60396;47.550;18.828;2022-08-20T09:23:05;16.65;;;3.90;;
72406;SDS011;60396;47.550;18.828;2022-08-20T09:25:33;14.95;;;4.12;;
72406;SDS011;60396;47.550;18.828;2022-08-20T09:28:01;11.47;;;3.23;;
72406;SDS011;60396;47.550;18.828;2022-08-20T09:30:30;11.90;;;3.80;;
72406;SDS011;60396;47.550;18.828;2022-08-20T09:32:58;13.68;;;4.18;;
72406;SDS011;60396;47.550;18.828;2022-08-20T09:35:26;15.77;;;4.05;;
72406;SDS011;60396;47.550;18.828;2022-08-20T09:37:54;14.55;;;3.45;;
72406;SDS011;60396;47.550;18.828;2022-08-20T09:40:22;10.93;;;3.37;;
72406;SDS011;60396;47.550;18.828;2022-08-20T09:42:50;11.45;;;3.17;;
72406;SDS011;60396;47.550;18.828;2022-08-20T09:45:17;10.98;;;3.08;;
72406;SDS011;60396;47.550;18.828;2022-08-20T09:47:45;12.73;;;3.33;;
72406;SDS011;60396;47.550;18.828;2022-08-20T09:50:30;11.45;;;2.95;;
72406;SDS011;60396;47.550;18.828;2022-08-20T09:52:59;15.17;;;2.53;;
72406;SDS011;60396;47.550;18.828;2022-08-20T09:55:35;9.82;;;2.53;;
72406;SDS011;60396;47.550;18.828;2022-08-20T09:58:06;10.57;;;2.28;;
72406;SDS011;60396;47.550;18.828;2022-08-20T10:00:37;16.37;;;2.53;;
72406;SDS011;60396;47.550;18.828;2022-08-20T10:03:06;15.32;;;2.50;;
72406;SDS011;60396;47.550;18.828;2022-08-20T10:05:33;11.63;;;2.37;;
72406;SDS011;60396;47.550;18.828;2022-08-20T10:08:05;10.35;;;2.62;;
72406;SDS011;60396;47.550;18.828;2022-08-20T10:10:34;10.88;;;2.65;;
72406;SDS011;60396;47.550;18.828;2022-08-20T10:13:02;10.82;;;2.50;;
72406;SDS011;60396;47.550;18.828;2022-08-20T10:15:30;10.35;;;3.00;;
72406;SDS011;60396;47.550;18.828;2022-08-20T10:17:58;10.57;;;3.33;;
72406;SDS011;60396;47.550;18.828;2022-08-20T10:20:31;13.20;;;2.95;;
72406;SDS011;60396;47.550;18.828;2022-08-20T10:22:59;12.25;;;3.03;;
72406;SDS011;60396;47.550;18.828;2022-08-20T10:25:27;10.70;;;2.65;;
72406;SDS011;60396;47.550;18.828;2022-08-20T10:27:55;9.60;;;2.53;;
72406;SDS011;60396;47.550;18.828;2022-08-20T10:30:23;10.60;;;2.63;;
72406;SDS011;60396;47.550;18.828;2022-08-20T10:32:51;10.60;;;2.50;;
72406;SDS011;60396;47.550;18.828;2022-08-20T10:35:19;11.98;;;3.03;;
72406;SDS011;60396;47.550;18.828;2022-08-20T10:37:47;9.25;;;2.53;;
72406;SDS011;60396;47.550;18.828;2022-08-20T10:40:14;7.70;;;2.25;;
72406;SDS011;60396;47.550;18.828;2022-08-20T10:42:43;8.77;;;2.47;;
72406;SDS011;60396;47.550;18.828;2022-08-20T10:45:12;9.45;;;3.03;;
72406;SDS011;60396;47.550;18.828;2022-08-20T10:47:41;11.73;;;2.80;;
72406;SDS011;60396;47.550;18.828;2022-08-20T10:50:10;11.95;;;2.97;;
72406;SDS011;60396;47.550;18.828;2022-08-20T10:52:41;8.93;;;3.08;;
72406;SDS011;60396;47.550;18.828;2022-08-20T10:55:08;9.27;;;2.77;;
72406;SDS011;60396;47.550;18.828;2022-08-20T10:57:37;9.23;;;2.75;;
72406;SDS011;60396;47.550;18.828;2022-08-20T11:00:06;11.32;;;2.92;;
72406;SDS011;60396;47.550;18.828;2022-08-20T11:02:36;10.20;;;3.20;;
72406;SDS011;60396;47.550;18.828;2022-08-20T11:05:04;8.93;;;2.87;;
72406;SDS011;60396;47.550;18.828;2022-08-20T11:07:34;12.77;;;3.50;;
72406;SDS011;60396;47.550;18.828;2022-08-20T11:10:23;9.10;;;2.80;;
72406;SDS011;60396;47.550;18.828;2022-08-20T11:12:52;10.90;;;2.80;;
72406;SDS011;60396;47.550;18.828;2022-08-20T11:15:20;10.35;;;2.60;;
72406;SDS011;60396;47.550;18.828;2022-08-20T11:17:47;9.38;;;2.67;;
72406;SDS011;60396;47.550;18.828;2022-08-20T11:20:17;10.20;;;2.47;;
72406;SDS011;60396;47.550;18.828;2022-08-20T11:22:45;9.32;;;2.12;;
72406;SDS011;60396;47.550;18.828;2022-08-20T11:25:13;8.32;;;2.70;;
72406;SDS011;60396;47.550;18.828;2022-08-20T11:27:42;8.50;;;2.50;;
72406;SDS011;60396;47.550;18.828;2022-08-20T11:30:14;7.60;;;2.40;;
72406;SDS011;60396;47.550;18.828;2022-08-20T11:32:49;10.70;;;2.77;;
72406;SDS011;60396;47.550;18.828;2022-08-20T11:35:17;9.88;;;2.55;;
72406;SDS011;60396;47.550;18.828;2022-08-20T11:38:07;9.75;;;2.35;;
72406;SDS011;60396;47.550;18.828;2022-08-20T11:40:35;7.45;;;1.90;;
72406;SDS011;60396;47.550;18.828;2022-08-20T11:43:02;7.80;;;2.17;;
72406;SDS011;60396;47.550;18.828;2022-08-20T11:45:47;6.83;;;2.03;;
72406;SDS011;60396;47.550;18.828;2022-08-20T11:48:19;6.90;;;1.85;;
72406;SDS011;60396;47.550;18.828;2022-08-20T11:50:47;7.90;;;1.73;;
72406;SDS011;60396;47.550;18.828;2022-08-20T11:53:15;10.50;;;1.50;;
72406;SDS011;60396;47.550;18.828;2022-08-20T11:55:43;9.43;;;1.77;;
72406;SDS011;60396;47.550;18.828;2022-08-20T11:58:12;9.13;;;2.07;;
72406;SDS011;60396;47.550;18.828;2022-08-20T12:00:39;8.88;;;2.25;;
72406;SDS011;60396;47.550;18.828;2022-08-20T12:03:07;8.65;;;1.67;;
72406;SDS011;60396;47.550;18.828;2022-08-20T12:05:43;9.05;;;2.00;;
72406;SDS011;60396;47.550;18.828;2022-08-20T12:08:13;6.78;;;2.10;;
72406;SDS011;60396;47.550;18.828;2022-08-20T12:10:54;7.83;;;1.80;;
72406;SDS011;60396;47.550;18.828;2022-08-20T12:13:24;6.22;;;1.60;;
72406;SDS011;60396;47.550;18.828;2022-08-20T12:16:13;6.35;;;1.70;;
72406;SDS011;60396;47.550;18.828;2022-08-20T12:18:41;5.80;;;1.52;;
72406;SDS011;60396;47.550;18.828;2022-08-20T12:21:09;9.82;;;2.30;;
72406;SDS011;60396;47.550;18.828;2022-08-20T12:23:36;8.77;;;1.87;;
72406;SDS011;60396;47.550;18.828;2022-08-20T12:26:04;8.23;;;2.22;;
72406;SDS011;60396;47.550;18.828;2022-08-20T12:28:32;8.93;;;1.87;;
72406;SDS011;60396;47.550;18.828;2022-08-20T12:30:59;16.23;;;2.20;;
72406;SDS011;60396;47.550;18.828;2022-08-20T12:33:27;9.50;;;2.12;;
72406;SDS011;60396;47.550;18.828;2022-08-20T12:35:55;8.93;;;2.10;;
72406;SDS011;60396;47.550;18.828;2022-08-20T12:38:23;7.82;;;2.20;;
72406;SDS011;60396;47.550;18.828;2022-08-20T12:40:51;6.68;;;1.80;;
72406;SDS011;60396;47.550;18.828;2022-08-20T12:43:18;8.85;;;2.10;;
72406;SDS011;60396;47.550;18.828;2022-08-20T12:45:51;9.02;;;2.58;;
72406;SDS011;60396;47.550;18.828;2022-08-20T12:48:19;9.30;;;2.20;;
72406;SDS011;60396;47.550;18.828;2022-08-20T12:50:47;7.70;;;2.50;;
72406;SDS011;60396;47.550;18.828;2022-08-20T12:53:16;8.07;;;1.92;;
72406;SDS011;60396;47.550;18.828;2022-08-20T12:55:44;13.70;;;2.40;;
72406;SDS011;60396;47.550;18.828;2022-08-20T12:58:12;13.07;;;2.75;;
72406;SDS011;60396;47.550;18.828;2022-08-20T13:00:41;7.57;;;1.83;;
72406;SDS011;60396;47.550;18.828;2022-08-20T13:03:16;7.75;;;1.90;;
72406;SDS011;60396;47.550;18.828;2022-08-20T13:05:46;12.13;;;2.20;;
72406;SDS011;60396;47.550;18.828;2022-08-20T13:08:14;12.93;;;2.60;;
72406;SDS011;60396;47.550;18.828;2022-08-20T13:10:43;9.18;;;3.15;;
72406;SDS011;60396;47.550;18.828;2022-08-20T13:13:13;8.33;;;2.07;;
72406;SDS011;60396;47.550;18.828;2022-08-20T13:15:47;10.88;;;2.75;;
72406;SDS011;60396;47.550;18.828;2022-08-20T13:18:16;8.65;;;2.28;;
72406;SDS011;60396;47.550;18.828;2022-08-20T13:20:44;9.40;;;2.17;;
72406;SDS011;60396;47.550;18.828;2022-08-20T13:23:12;8.95;;;2.03;;
72406;SDS011;60396;47.550;18.828;2022-08-20T13:25:39;8.87;;;1.93;;
72406;SDS011;60396;47.550;18.828;2022-08-20T13:28:07;7.47;;;2.47;;
72406;SDS011;60396;47.550;18.828;2022-08-20T13:30:35;14.93;;;2.65;;
72406;SDS011;60396;47.550;18.828;2022-08-20T13:33:07;9.10;;;2.35;;
72406;SDS011;60396;47.550;18.828;2022-08-20T13:35:35;8.15;;;2.20;;
72406;SDS011;60396;47.550;18.828;2022-08-20T13:38:02;11.60;;;3.40;;
72406;SDS011;60396;47.550;18.828;2022-08-20T13:40:30;8.65;;;2.70;;
72406;SDS011;60396;47.550;18.828;2022-08-20T13:42:58;10.75;;;2.08;;
72406;SDS011;60396;47.550;18.828;2022-08-20T13:45:34;9.55;;;2.40;;
72406;SDS011;60396;47.550;18.828;2022-08-20T13:48:02;11.00;;;2.50;;
72406;SDS011;60396;47.550;18.828;2022-08-20T13:50:33;13.43;;;3.30;;
72406;SDS011;60396;47.550;18.828;2022-08-20T13:53:01;16.20;;;3.55;;
72406;SDS011;60396;47.550;18.828;2022-08-20T13:55:29;12.95;;;2.87;;
72406;SDS011;60396;47.550;18.828;2022-08-20T13:57:56;12.98;;;2.83;;
72406;SDS011;60396;47.550;18.828;2022-08-20T14:00:26;12.60;;;3.00;;
72406;SDS011;60396;47.550;18.828;2022-08-20T14:02:59;11.10;;;3.20;;
72406;SDS011;60396;47.550;18.828;2022-08-20T14:05:29;16.50;;;3.33;;
72406;SDS011;60396;47.550;18.828;2022-08-20T14:08:08;13.40;;;3.20;;
72406;SDS011;60396;47.550;18.828;2022-08-20T14:10:36;10.40;;;3.47;;
72406;SDS011;60396;47.550;18.828;2022-08-20T14:13:05;10.13;;;2.80;;
72406;SDS011;60396;47.550;18.828;2022-08-20T14:15:34;11.90;;;3.30;;
72406;SDS011;60396;47.550;18.828;2022-08-20T14:18:02;11.35;;;3.00;;
72406;SDS011;60396;47.550;18.828;2022-08-20T14:20:31;11.52;;;3.10;;
72406;SDS011;60396;47.550;18.828;2022-08-20T14:23:00;14.70;;;3.28;;
72406;SDS011;60396;47.550;18.828;2022-08-20T14:25:29;11.80;;;3.22;;
72406;SDS011;60396;47.550;18.828;2022-08-20T14:27:57;9.70;;;3.00;;
72406;SDS011;60396;47.550;18.828;2022-08-20T14:30:26;11.52;;;3.10;;
72406;SDS011;60396;47.550;18.828;2022-08-20T14:32:56;13.18;;;2.55;;
72406;SDS011;60396;47.550;18.828;2022-08-20T14:35:24;11.27;;;2.97;;
72406;SDS011;60396;47.550;18.828;2022-08-20T14:37:51;9.65;;;2.70;;
72406;SDS011;60396;47.550;18.828;2022-08-20T14:40:21;10.70;;;2.70;;
72406;SDS011;60396;47.550;18.828;2022-08-20T14:42:50;9.63;;;2.97;;
72406;SDS011;60396;47.550;18.828;2022-08-20T14:45:18;9.77;;;3.30;;
72406;SDS011;60396;47.550;18.828;2022-08-20T14:47:48;12.27;;;2.70;;
72406;SDS011;60396;47.550;18.828;2022-08-20T14:50:21;10.40;;;2.55;;
72406;SDS011;60396;47.550;18.828;2022-08-20T14:52:52;10.67;;;2.70;;
72406;SDS011;60396;47.550;18.828;2022-08-20T14:55:20;14.87;;;3.08;;